Time;durP1;ratioP1;P1;durP2;ratioP2;P2;SDS_P1;SDS_P2;PMS_P1;PMS_P2;Temp;Humidity;BMP_temperature;BMP_pressure;BME280_temperature;BME280_humidity;BME280_pressure;Samples;Min_cycle;Max_cycle;Signal;HPM_P1;HPM_P2
2022/08/29 00:04:15;;;;;;;4.93;2.10;;;;;14.30;101635.00;;;;12796702;22;20198;-79
2022/08/29 00:09:17;;;;;;;7.53;1.93;;;;;14.20;101633.00;;;;12816530;22;20186;-78
2022/08/29 00:14:19;;;;;;;3.23;2.10;;;;;14.10;101615.00;;;;12796988;22;20162;-79
2022/08/29 00:19:24;;;;;;;6.33;2.40;;;;;14.00;101616.00;;;;12844067;22;20193;-78
2022/08/29 00:24:26;;;;;;;4.77;2.20;;;;;13.90;101624.00;;;;12823348;22;20260;-78
2022/08/29 00:29:27;;;;;;;4.23;2.20;;;;;13.80;101627.00;;;;12867880;22;20171;-78
2022/08/29 00:34:28;;;;;;;5.70;2.10;;;;;13.80;101621.00;;;;12796051;22;20178;-78
2022/08/29 00:39:30;;;;;;;7.90;2.30;;;;;13.70;101621.00;;;;12769417;22;20625;-78
2022/08/29 00:44:33;;;;;;;3.63;2.00;;;;;13.70;101626.00;;;;12796508;22;20549;-78
2022/08/29 00:49:41;;;;;;;6.00;2.60;;;;;13.60;101634.00;;;;12796754;22;20185;-79
2022/08/29 00:54:46;;;;;;;5.73;2.23;;;;;13.50;101629.00;;;;12865900;22;20185;-78
2022/08/29 00:59:49;;;;;;;6.47;2.47;;;;;13.50;101623.00;;;;12866014;22;20177;-79
2022/08/29 01:04:51;;;;;;;5.07;2.43;;;;;13.50;101618.00;;;;12793859;22;20253;-79
2022/08/29 01:09:53;;;;;;;5.00;2.40;;;;;13.50;101622.00;;;;12769969;22;20177;-78
2022/08/29 01:14:58;;;;;;;6.80;2.63;;;;;13.40;101623.00;;;;12840800;22;20167;-79
2022/08/29 01:20:33;;;;;;;3.63;2.40;;;;;13.40;101622.00;;;;12819432;22;20594;-79
2022/08/29 01:25:40;;;;;;;6.97;2.70;;;;;13.30;101629.00;;;;12795139;22;20261;-78
2022/08/29 01:31:11;;;;;;;9.00;3.17;;;;;13.30;101638.00;;;;12795168;22;20186;-78
2022/08/29 01:36:32;;;;;;;4.93;3.00;;;;;13.20;101629.00;;;;12820010;22;20852;-79
2022/08/29 01:41:34;;;;;;;5.50;3.00;;;;;13.20;101618.00;;;;12821838;22;20174;-78
2022/08/29 01:46:35;;;;;;;10.87;3.00;;;;;13.10;101625.00;;;;12796334;22;20193;-79
2022/08/29 01:51:37;;;;;;;4.63;2.70;;;;;13.10;101630.00;;;;12771884;22;20257;-79
2022/08/29 01:56:43;;;;;;;6.07;3.17;;;;;13.00;101633.00;;;;12841313;22;20217;-79
2022/08/29 02:01:52;;;;;;;6.07;2.97;;;;;12.90;101629.00;;;;12793911;22;21042;-79
2022/08/29 02:06:55;;;;;;;3.50;3.20;;;;;12.90;101626.00;;;;12794890;22;20194;-78
2022/08/29 02:11:57;;;;;;;4.67;3.00;;;;;12.80;101619.00;;;;12796019;22;20181;-79
2022/08/29 02:16:58;;;;;;;7.70;3.80;;;;;12.80;101616.00;;;;12819476;22;20174;-79
2022/08/29 02:22:01;;;;;;;6.33;3.53;;;;;12.70;101622.00;;;;12797643;22;20883;-79
2022/08/29 02:27:03;;;;;;;12.17;4.00;;;;;12.70;101624.00;;;;12821774;22;20194;-79
2022/08/29 02:32:07;;;;;;;6.43;4.10;;;;;12.70;101622.00;;;;12799514;22;20181;-78
2022/08/29 02:37:09;;;;;;;6.30;3.60;;;;;12.70;101625.00;;;;12823176;22;20245;-79
2022/08/29 02:42:10;;;;;;;9.37;4.27;;;;;12.70;101622.00;;;;12775059;22;20617;-79
2022/08/29 02:47:11;;;;;;;10.20;4.30;;;;;12.70;101627.00;;;;12796440;22;20252;-78
2022/08/29 02:52:13;;;;;;;8.50;4.33;;;;;12.70;101620.00;;;;12774856;22;20174;-78
2022/08/29 02:57:14;;;;;;;7.40;4.17;;;;;12.70;101602.00;;;;12775499;22;20242;-79
2022/08/29 03:02:15;;;;;;;7.77;4.23;;;;;12.60;101609.00;;;;12827790;22;20174;-78
2022/08/29 03:07:16;;;;;;;7.83;4.10;;;;;12.60;101613.00;;;;12823384;22;20221;-78
2022/08/29 03:12:18;;;;;;;8.33;3.97;;;;;12.50;101602.00;;;;12845276;22;20245;-79
2022/08/29 03:17:19;;;;;;;13.00;4.47;;;;;12.60;101605.00;;;;12800000;22;20181;-79
2022/08/29 03:22:20;;;;;;;12.23;4.60;;;;;12.60;101612.00;;;;12799661;22;20196;-79
2022/08/29 03:27:22;;;;;;;5.83;3.67;;;;;12.60;101606.00;;;;12800081;22;20182;-78
2022/08/29 03:32:23;;;;;;;7.93;4.37;;;;;12.70;101612.00;;;;12869167;22;20182;-79
2022/08/29 03:37:25;;;;;;;8.53;4.10;;;;;12.70;101608.00;;;;12847918;22;20186;-79
2022/08/29 03:42:28;;;;;;;6.67;3.97;;;;;12.70;101607.00;;;;12843635;22;20173;-78
2022/08/29 03:47:30;;;;;;;8.70;4.17;;;;;12.60;101607.00;;;;12843969;22;20711;-79
2022/08/29 03:52:31;;;;;;;6.60;4.33;;;;;12.60;101617.00;;;;12771552;22;20256;-79
2022/08/29 03:57:33;;;;;;;8.23;4.17;;;;;12.60;101619.00;;;;12796104;22;20248;-78
2022/08/29 04:02:35;;;;;;;8.67;4.57;;;;;12.60;101621.00;;;;12796778;22;20174;-78
2022/08/29 04:07:42;;;;;;;6.57;4.17;;;;;12.60;101615.00;;;;12843707;22;20189;-79
2022/08/29 04:12:44;;;;;;;7.63;4.30;;;;;12.60;101621.00;;;;12798671;22;20180;-79
2022/08/29 04:17:45;;;;;;;8.40;4.20;;;;;12.70;101619.00;;;;12820610;22;20177;-78
2022/08/29 04:22:55;;;;;;;5.67;3.63;;;;;12.80;101620.00;;;;12797016;22;20225;-79
2022/08/29 04:27:56;;;;;;;5.87;3.97;;;;;12.80;101630.00;;;;12869260;22;20177;-78
2022/08/29 04:32:58;;;;;;;7.43;3.40;;;;;12.80;101633.00;;;;12820198;22;20177;-78
2022/08/29 04:37:59;;;;;;;5.77;3.93;;;;;12.70;101632.00;;;;12817007;22;20186;-79
2022/08/29 04:43:00;;;;;;;8.77;3.87;;;;;12.70;101640.00;;;;12823375;22;20190;-79
2022/08/29 04:48:03;;;;;;;8.80;3.97;;;;;12.60;101643.00;;;;12871616;22;20248;-79
2022/08/29 04:53:04;;;;;;;7.13;4.10;;;;;12.60;101652.00;;;;12867375;22;20174;-78
2022/08/29 04:58:05;;;;;;;5.60;3.80;;;;;12.50;101654.00;;;;12772438;22;20676;-78
2022/08/29 05:03:10;;;;;;;7.67;4.40;;;;;12.40;101654.00;;;;12775087;22;20261;-78
2022/08/29 05:08:12;;;;;;;9.43;4.27;;;;;12.40;101668.00;;;;12822078;22;20165;-78
2022/08/29 05:13:13;;;;;;;7.50;4.57;;;;;12.40;101662.00;;;;12818778;23;20236;-79
2022/08/29 05:18:16;;;;;;;8.07;4.93;;;;;12.50;101661.00;;;;12799304;22;20256;-78
2022/08/29 05:23:18;;;;;;;7.17;4.17;;;;;12.60;101666.00;;;;12843722;22;20209;-79
2022/08/29 05:28:19;;;;;;;15.90;4.30;;;;;12.70;101672.00;;;;12772302;22;20175;-79
2022/08/29 05:33:20;;;;;;;9.80;4.37;;;;;12.80;101682.00;;;;12772978;22;20273;-79
2022/08/29 05:38:21;;;;;;;7.53;4.37;;;;;13.00;101677.00;;;;12797063;22;20252;-79
2022/08/29 05:43:24;;;;;;;5.97;4.20;;;;;13.10;101677.00;;;;12842763;22;20182;-78
2022/08/29 05:48:25;;;;;;;8.13;4.30;;;;;13.30;101682.00;;;;12766398;22;20273;-78
2022/08/29 05:53:26;;;;;;;9.20;4.47;;;;;13.40;101687.00;;;;12821968;22;20181;-78
2022/08/29 05:58:27;;;;;;;8.60;4.50;;;;;13.50;101693.00;;;;12821562;22;20170;-78
2022/08/29 06:03:29;;;;;;;10.37;4.87;;;;;13.70;101695.00;;;;12865641;22;20202;-79
2022/08/29 06:08:31;;;;;;;9.83;4.77;;;;;13.80;101692.00;;;;12793415;22;20236;-78
2022/08/29 06:13:32;;;;;;;9.07;5.30;;;;;13.90;101685.00;;;;12864939;22;20182;-78
2022/08/29 06:18:33;;;;;;;8.47;5.43;;;;;14.00;101694.00;;;;12820324;22;20205;-78
2022/08/29 06:23:39;;;;;;;9.60;5.33;;;;;14.30;101695.00;;;;12795419;22;20194;-78
2022/08/29 06:28:46;;;;;;;12.13;6.47;;;;;15.00;101689.00;;;;12770365;22;20166;-79
2022/08/29 06:33:52;;;;;;;10.93;5.67;;;;;15.50;101686.00;;;;12840564;22;20289;-78
2022/08/29 06:38:58;;;;;;;10.70;5.97;;;;;16.00;101691.00;;;;12795848;22;20194;-78
2022/08/29 06:44:00;;;;;;;10.60;5.07;;;;;16.10;101689.00;;;;12769991;22;20198;-78
2022/08/29 06:49:04;;;;;;;9.67;4.63;;;;;16.30;101699.00;;;;12795016;22;20170;-79
2022/08/29 06:54:07;;;;;;;8.43;5.37;;;;;16.40;101694.00;;;;12789277;22;20183;-79
2022/08/29 06:59:11;;;;;;;8.87;5.33;;;;;16.30;101700.00;;;;12791603;22;20170;-79
2022/08/29 07:04:13;;;;;;;13.50;5.30;;;;;16.30;101702.00;;;;12792045;23;20201;-79
2022/08/29 07:09:16;;;;;;;12.00;5.20;;;;;16.40;101702.00;;;;12791089;22;20621;-79
2022/08/29 07:14:20;;;;;;;8.50;4.63;;;;;16.60;101711.00;;;;12816808;22;20240;-77
2022/08/29 07:19:24;;;;;;;9.33;4.30;;;;;17.00;101710.00;;;;12815467;22;20169;-78
2022/08/29 07:24:26;;;;;;;7.22;4.40;;;;;17.40;101707.00;;;;12864621;22;20190;-77
2022/08/29 07:29:28;;;;;;;9.35;4.10;;;;;17.80;101705.00;;;;12769390;22;20177;-78
2022/08/29 07:34:31;;;;;;;10.77;4.07;;;;;18.80;101706.00;;;;12795568;22;20665;-78
2022/08/29 07:39:36;;;;;;;7.95;3.50;;;;;19.40;101710.00;;;;12839646;22;20236;-78
2022/08/29 07:44:40;;;;;;;12.70;3.75;;;;;19.40;101707.00;;;;12840111;22;20668;-78
2022/08/29 07:49:42;;;;;;;9.60;2.97;;;;;19.20;101711.00;;;;12792805;22;20182;-78
2022/08/29 07:54:43;;;;;;;6.70;2.85;;;;;19.20;101709.00;;;;12812653;22;20193;-78
2022/08/29 07:59:45;;;;;;;5.57;2.85;;;;;19.30;101709.00;;;;12788659;22;20189;-78
2022/08/29 08:04:47;;;;;;;7.50;2.45;;;;;19.70;101708.00;;;;12795365;22;20193;-79
2022/08/29 08:09:53;;;;;;;6.55;2.35;;;;;20.20;101723.00;;;;12793635;22;20192;-79
2022/08/29 08:14:55;;;;;;;7.57;2.53;;;;;20.70;101716.00;;;;12843761;22;20181;-78
2022/08/29 08:19:57;;;;;;;4.65;2.53;;;;;21.00;101722.00;;;;12839858;22;20159;-78
2022/08/29 08:24:58;;;;;;;5.93;2.35;;;;;20.80;101729.00;;;;12833872;22;20298;-78
2022/08/29 08:30:00;;;;;;;8.10;2.40;;;;;20.80;101729.00;;;;12839603;22;20238;-78
2022/08/29 08:35:02;;;;;;;7.03;2.50;;;;;20.70;101730.00;;;;12820062;22;20158;-77
2022/08/29 08:40:05;;;;;;;5.70;2.20;;;;;20.80;101723.00;;;;12818447;22;20197;-77
2022/08/29 08:45:09;;;;;;;7.60;2.60;;;;;21.10;101725.00;;;;12792213;22;20285;-78
2022/08/29 08:50:36;;;;;;;8.95;2.67;;;;;21.50;101718.00;;;;12839165;22;20529;-78
2022/08/29 08:55:42;;;;;;;6.75;2.50;;;;;22.40;101720.00;;;;12814585;22;20204;-78
2022/08/29 09:00:49;;;;;;;7.50;2.67;;;;;22.50;101726.00;;;;12779885;22;20178;-78
2022/08/29 09:06:09;;;;;;;10.10;3.05;;;;;22.10;101733.00;;;;12811447;22;20187;-78
2022/08/29 09:11:36;;;;;;;6.03;2.40;;;;;21.20;101726.00;;;;12864120;22;20166;-79
2022/08/29 09:16:47;;;;;;;11.15;2.83;;;;;22.00;101722.00;;;;12838385;22;20679;-77
2022/08/29 09:22:07;;;;;;;3.30;2.50;;;;;23.70;101716.00;;;;12831816;22;20298;-77
2022/08/29 09:27:21;;;;;;;6.70;2.85;;;;;24.40;101715.00;;;;12792035;22;20655;-78
2022/08/29 09:32:22;;;;;;;7.80;3.35;;;;;24.90;101714.00;;;;12791231;22;20174;-77
2022/08/29 09:37:33;;;;;;;5.57;3.20;;;;;25.40;101706.00;;;;12763775;22;20220;-77
2022/08/29 09:42:38;;;;;;;8.68;3.35;;;;;24.70;101711.00;;;;12843317;22;20166;-77
2022/08/29 09:47:40;;;;;;;5.53;2.65;;;;;25.00;101703.00;;;;12791689;22;20200;-78
2022/08/29 09:53:05;;;;;;;6.47;3.08;;;;;25.40;101697.00;;;;12790296;22;20539;-77
2022/08/29 09:58:15;;;;;;;7.95;2.72;;;;;25.90;101692.00;;;;12815916;22;20166;-78
2022/08/29 10:03:21;;;;;;;6.35;3.08;;;;;26.40;101703.00;;;;12789844;22;20194;-79
2022/08/29 10:08:33;;;;;;;6.35;4.75;;;;;26.70;101706.00;;;;12793441;22;20170;-77
2022/08/29 10:13:44;;;;;;;6.43;2.65;;;;;26.80;101701.00;;;;12814471;22;20614;-78
2022/08/29 10:18:59;;;;;;;5.68;3.08;;;;;26.80;101687.00;;;;12830109;22;20181;-78
2022/08/29 10:24:13;;;;;;;6.10;2.92;;;;;27.00;101685.00;;;;12805303;22;20648;-79
2022/08/29 10:29:38;;;;;;;4.50;2.50;;;;;27.40;101680.00;;;;12815722;22;20205;-78
2022/08/29 10:35:02;;;;;;;4.35;3.10;;;;;27.40;101682.00;;;;12860114;22;20820;-78
2022/08/29 10:40:09;;;;;;;5.75;2.67;;;;;27.70;101669.00;;;;12813585;22;20194;-79
2022/08/29 10:45:29;;;;;;;5.90;2.85;;;;;28.00;101676.00;;;;12792725;22;20296;-78
2022/08/29 10:50:44;;;;;;;7.95;2.65;;;;;28.10;101652.00;;;;12836862;22;20501;-78
2022/08/29 10:55:58;;;;;;;7.63;2.97;;;;;28.30;101650.00;;;;12839966;22;20770;-79
2022/08/29 11:01:14;;;;;;;7.35;2.97;;;;;28.60;101644.00;;;;12839021;22;20170;-77
2022/08/29 11:06:30;;;;;;;8.63;3.15;;;;;28.80;101646.00;;;;12793876;22;20202;-78
2022/08/29 11:11:35;;;;;;;8.05;3.17;;;;;28.90;101645.00;;;;12861622;22;20158;-78
2022/08/29 11:16:48;;;;;;;4.80;2.72;;;;;29.10;101630.00;;;;12863680;22;20167;-78
2022/08/29 11:22:15;;;;;;;7.57;3.00;;;;;29.20;101636.00;;;;12843124;22;20169;-79
2022/08/29 11:27:30;;;;;;;4.80;2.88;;;;;29.40;101629.00;;;;12793017;22;20190;-78
2022/08/29 11:33:00;;;;;;;7.18;2.95;;;;;29.70;101621.00;;;;12821479;22;20181;-78
2022/08/29 11:38:35;;;;;;;9.25;3.25;;;;;28.30;101619.00;;;;12792826;22;20197;-78
2022/08/29 11:43:41;;;;;;;6.25;3.20;;;;;28.10;101629.00;;;;12796138;22;20330;-78
2022/08/29 11:48:46;;;;;;;4.40;3.08;;;;;27.70;101608.00;;;;12823823;22;20170;-77
2022/08/29 11:53:47;;;;;;;5.10;2.92;;;;;27.90;101609.00;;;;12792843;22;20178;-78
2022/08/29 11:59:00;;;;;;;6.88;2.75;;;;;27.70;101599.00;;;;12864147;22;20220;-78
2022/08/29 12:04:43;;;;;;;6.90;3.35;;;;;27.00;101604.00;;;;12769557;22;20194;-79
2022/08/29 12:09:49;;;;;;;6.00;3.25;;;;;27.20;101595.00;;;;12794483;22;20782;-79
2022/08/29 12:14:51;;;;;;;4.50;2.70;;;;;27.60;101581.00;;;;12794059;22;20162;-78
2022/08/29 12:20:03;;;;;;;5.13;2.80;;;;;29.30;101570.00;;;;12818552;22;20181;-78
2022/08/29 12:25:42;;;;;;;6.82;3.00;;;;;29.60;101568.00;;;;12816387;22;20265;-78
2022/08/29 12:30:47;;;;;;;3.90;2.60;;;;;30.00;101559.00;;;;12862057;22;20269;-78
2022/08/29 12:36:00;;;;;;;4.38;2.60;;;;;29.50;101568.00;;;;12816804;22;20288;-78
2022/08/29 12:41:31;;;;;;;3.92;2.75;;;;;28.80;101562.00;;;;12820222;22;20174;-78
2022/08/29 12:46:55;;;;;;;8.25;2.78;;;;;29.50;101568.00;;;;12795270;22;20221;-78
2022/08/29 12:52:20;;;;;;;4.10;2.80;;;;;30.10;101554.00;;;;12816588;22;20184;-79
2022/08/29 12:57:35;;;;;;;4.97;2.50;;;;;30.30;101554.00;;;;12793666;22;20292;-78
2022/08/29 13:02:37;;;;;;;4.70;3.00;;;;;30.10;101543.00;;;;12863144;22;20249;-78
2022/08/29 13:07:38;;;;;;;3.38;2.40;;;;;30.30;101537.00;;;;12791732;22;20205;-78
2022/08/29 13:12:40;;;;;;;6.00;2.75;;;;;30.70;101530.00;;;;12811193;22;20245;-78
2022/08/29 13:17:47;;;;;;;6.05;2.75;;;;;30.10;101538.00;;;;12791190;22;20177;-79
2022/08/29 13:22:48;;;;;;;6.45;2.90;;;;;30.00;101535.00;;;;12813295;22;20301;-78
2022/08/29 13:27:55;;;;;;;5.65;2.35;;;;;29.80;101523.00;;;;12791838;22;20228;-78
2022/08/29 13:33:02;;;;;;;5.65;3.10;;;;;29.70;101520.00;;;;12813536;22;20163;-79
2022/08/29 13:38:25;;;;;;;5.55;3.25;;;;;31.40;101520.00;;;;12806322;22;20329;-78
2022/08/29 13:43:35;;;;;;;3.53;2.47;;;;;31.90;101509.00;;;;12764644;22;20193;-78
2022/08/29 13:48:36;;;;;;;6.93;2.80;;;;;31.00;101509.00;;;;12814050;22;20927;-78
2022/08/29 13:53:37;;;;;;;4.78;2.53;;;;;30.10;101532.00;;;;12835876;22;20162;-78
2022/08/29 13:58:39;;;;;;;5.53;2.70;;;;;30.50;101522.00;;;;12815990;22;20189;-78
2022/08/29 14:03:40;;;;;;;6.18;2.47;;;;;30.00;101514.00;;;;12790735;22;20280;-78
2022/08/29 14:08:41;;;;;;;3.53;2.35;;;;;30.40;101489.00;;;;12834945;22;20220;-78
2022/08/29 14:13:48;;;;;;;7.57;2.60;;;;;34.30;101486.00;;;;12812439;22;20178;-78
2022/08/29 14:18:49;;;;;;;5.85;2.70;;;;;33.30;101495.00;;;;12814789;22;20602;-79
2022/08/29 14:23:53;;;;;;;5.97;3.25;;;;;31.10;101490.00;;;;12791396;22;20248;-81
2022/08/29 14:28:54;;;;;;;5.13;2.88;;;;;31.60;101480.00;;;;12822362;22;20178;-81
2022/08/29 14:33:55;;;;;;;6.47;2.85;;;;;31.50;101468.00;;;;12794756;22;20872;-80
2022/08/29 14:38:57;;;;;;;7.00;3.25;;;;;33.20;101476.00;;;;12815701;22;20216;-80
2022/08/29 14:43:58;;;;;;;5.82;2.78;;;;;32.40;101460.00;;;;12815716;22;20186;-80
2022/08/29 14:49:00;;;;;;;7.47;2.53;;;;;31.20;101466.00;;;;12793869;22;20644;-80
2022/08/29 14:54:01;;;;;;;4.60;2.53;;;;;28.60;101466.00;;;;12839276;22;20190;-81
2022/08/29 14:59:03;;;;;;;5.82;2.85;;;;;29.10;101451.00;;;;12836060;22;20166;-80
2022/08/29 15:04:05;;;;;;;6.20;2.58;;;;;27.90;101450.00;;;;12793469;22;20194;-80
2022/08/29 15:09:08;;;;;;;4.82;2.53;;;;;29.40;101439.00;;;;12795027;22;20197;-79
2022/08/29 15:14:09;;;;;;;5.43;3.25;;;;;29.00;101443.00;;;;12836665;22;20177;-78
2022/08/29 15:19:11;;;;;;;4.13;2.50;;;;;28.30;101442.00;;;;12862827;22;20177;-79
2022/08/29 15:24:32;;;;;;;4.45;2.60;;;;;27.40;101428.00;;;;12841637;22;20198;-79
2022/08/29 15:29:36;;;;;;;5.78;2.85;;;;;27.30;101431.00;;;;12793272;22;20166;-79
2022/08/29 15:34:40;;;;;;;8.18;2.97;;;;;26.60;101422.00;;;;12792946;22;20395;-79
2022/08/29 15:39:41;;;;;;;6.10;3.22;;;;;26.80;101426.00;;;;12859598;22;20626;-79
2022/08/29 15:44:43;;;;;;;3.20;2.60;;;;;26.80;101426.00;;;;12783829;22;20190;-79
2022/08/29 15:49:44;;;;;;;4.90;2.70;;;;;26.60;101429.00;;;;12785290;22;20232;-79
2022/08/29 15:54:45;;;;;;;5.25;2.65;;;;;26.20;101425.00;;;;12810364;22;20249;-79
2022/08/29 15:59:47;;;;;;;7.45;2.78;;;;;25.70;101424.00;;;;12813349;22;20178;-79
2022/08/29 16:05:00;;;;;;;5.20;2.65;;;;;25.80;101433.00;;;;12813124;22;20837;-78
2022/08/29 16:10:04;;;;;;;8.60;2.50;;;;;26.00;101415.00;;;;12837265;22;20215;-79
2022/08/29 16:15:14;;;;;;;7.97;2.85;;;;;25.70;101414.00;;;;12787718;22;20174;-79
2022/08/29 16:20:15;;;;;;;10.68;2.95;;;;;25.50;101407.00;;;;12789682;22;20490;-79
2022/08/29 16:25:17;;;;;;;6.60;2.80;;;;;25.20;101402.00;;;;12789867;22;20271;-78
2022/08/29 16:30:19;;;;;;;7.57;3.08;;;;;24.50;101414.00;;;;12837515;22;20713;-79
2022/08/29 16:35:21;;;;;;;5.20;2.65;;;;;24.20;101406.00;;;;12791810;22;20178;-79
2022/08/29 16:40:22;;;;;;;6.68;2.90;;;;;24.30;101402.00;;;;12815065;22;20492;-78
2022/08/29 16:45:24;;;;;;;6.60;2.80;;;;;24.30;101403.00;;;;12789863;22;20608;-79
2022/08/29 16:50:26;;;;;;;4.35;2.55;;;;;24.30;101405.00;;;;12815660;22;20418;-79
2022/08/29 16:55:28;;;;;;;6.85;2.90;;;;;24.10;101396.00;;;;12816076;22;20178;-78
2022/08/29 17:00:29;;;;;;;8.75;2.85;;;;;24.00;101397.00;;;;12789911;22;20190;-79
2022/08/29 17:05:31;;;;;;;6.38;2.58;;;;;24.00;101401.00;;;;12789605;23;20288;-77
2022/08/29 17:20:35;;;;;;;7.15;2.58;;;;;24.30;101389.00;;;;12813040;22;20452;-79
2022/08/29 17:25:39;;;;;;;4.93;2.97;;;;;24.30;101393.00;;;;12859938;22;20261;-79
2022/08/29 17:30:41;;;;;;;5.03;2.65;;;;;24.10;101393.00;;;;12791821;22;20185;-79
2022/08/29 17:35:42;;;;;;;5.18;2.65;;;;;24.00;101383.00;;;;12836875;22;20162;-79
2022/08/29 17:40:45;;;;;;;5.47;2.92;;;;;23.90;101398.00;;;;12791900;22;20186;-79
2022/08/29 17:45:48;;;;;;;6.88;2.80;;;;;23.70;101401.00;;;;12795085;22;20194;-79
2022/08/29 17:50:50;;;;;;;7.22;2.92;;;;;23.50;101394.00;;;;12860493;22;20174;-78
2022/08/29 17:55:52;;;;;;;6.70;2.90;;;;;23.30;101394.00;;;;12857141;22;20778;-79
2022/08/29 18:00:53;;;;;;;8.48;2.60;;;;;23.00;101401.00;;;;12787463;22;20170;-78
2022/08/29 18:05:54;;;;;;;5.55;2.45;;;;;22.90;101394.00;;;;12763325;22;20690;-78
2022/08/29 18:10:56;;;;;;;3.90;2.38;;;;;22.70;101399.00;;;;12812442;22;20209;-78
2022/08/29 18:15:58;;;;;;;7.97;3.00;;;;;22.50;101407.00;;;;12788716;22;20403;-79
2022/08/29 18:20:59;;;;;;;5.40;2.80;;;;;22.20;101400.00;;;;12858037;22;20162;-79
2022/08/29 18:26:02;;;;;;;4.60;2.70;;;;;22.00;101399.00;;;;12812140;22;20202;-78
2022/08/29 18:31:03;;;;;;;6.50;3.20;;;;;21.70;101405.00;;;;12858488;22;20162;-79
2022/08/29 18:36:06;;;;;;;4.57;2.88;;;;;21.50;101408.00;;;;12788114;22;20190;-79
2022/08/29 18:41:08;;;;;;;10.43;2.75;;;;;21.20;101406.00;;;;12833430;22;20166;-79
2022/08/29 18:46:09;;;;;;;5.43;2.80;;;;;21.00;101415.00;;;;12855713;22;20186;-80
2022/08/29 18:51:11;;;;;;;8.80;3.05;;;;;20.80;101423.00;;;;12810314;22;20214;-79
2022/08/29 18:56:13;;;;;;;10.25;3.17;;;;;20.60;101417.00;;;;12857668;22;20171;-79
2022/08/29 19:01:19;;;;;;;6.22;3.13;;;;;20.40;101424.00;;;;12785128;22;20738;-78
2022/08/29 19:06:29;;;;;;;14.23;3.40;;;;;20.20;101427.00;;;;12831937;22;20511;-79
2022/08/29 19:11:30;;;;;;;5.68;3.08;;;;;20.10;101432.00;;;;12810206;22;20268;-78
2022/08/29 19:16:32;;;;;;;7.43;3.17;;;;;19.90;101435.00;;;;12787459;22;20174;-79
2022/08/29 19:21:33;;;;;;;7.07;2.88;;;;;19.80;101438.00;;;;12745562;22;20644;-79
2022/08/29 19:26:37;;;;;;;6.88;2.70;;;;;19.70;101439.00;;;;12859485;22;20189;-79
2022/08/29 19:31:40;;;;;;;8.80;3.25;;;;;19.50;101445.00;;;;12813357;22;20174;-79
2022/08/29 19:36:42;;;;;;;7.40;3.00;;;;;19.40;101439.00;;;;12764202;22;20218;-78
2022/08/29 19:41:48;;;;;;;3.85;2.60;;;;;19.40;101454.00;;;;12789314;22;20166;-79
2022/08/29 19:46:51;;;;;;;5.68;2.85;;;;;19.30;101455.00;;;;12788346;22;20241;-79
2022/08/29 19:51:53;;;;;;;5.75;2.60;;;;;19.20;101452.00;;;;12858630;22;20177;-79
2022/08/29 19:56:54;;;;;;;9.15;2.90;;;;;19.10;101458.00;;;;12764637;22;20170;-78
2022/08/29 20:01:56;;;;;;;3.83;2.50;;;;;19.00;101460.00;;;;12788910;22;20174;-79
2022/08/29 20:06:57;;;;;;;5.55;3.08;;;;;19.00;101460.00;;;;12789697;22;20641;-80
2022/08/29 20:12:02;;;;;;;6.53;3.10;;;;;19.00;101457.00;;;;12782668;22;20213;-79
2022/08/29 20:17:05;;;;;;;7.75;2.88;;;;;19.00;101455.00;;;;12785964;22;20181;-79
2022/08/29 20:22:11;;;;;;;8.50;3.30;;;;;19.00;101469.00;;;;12788006;22;20201;-79
2022/08/29 20:27:12;;;;;;;9.38;2.70;;;;;18.90;101470.00;;;;12837177;22;20273;-79
2022/08/29 20:32:14;;;;;;;6.82;3.05;;;;;18.90;101469.00;;;;12831865;22;20174;-79
2022/08/29 20:37:15;;;;;;;6.20;3.33;;;;;18.90;101472.00;;;;12809937;22;20285;-79
2022/08/29 20:42:20;;;;;;;6.60;2.78;;;;;18.90;101463.00;;;;12789271;22;20170;-79
2022/08/29 20:47:23;;;;;;;9.35;2.97;;;;;18.70;101463.00;;;;12786865;22;20911;-79
2022/08/29 20:52:24;;;;;;;7.13;2.70;;;;;18.60;101454.00;;;;12788846;23;20212;-79
2022/08/29 20:57:25;;;;;;;6.88;2.72;;;;;18.50;101455.00;;;;12811918;22;20170;-80
2022/08/29 21:07:46;;;;;;;7.72;3.20;;;;;18.30;101458.00;;;;12812829;22;20609;-79
2022/08/29 21:12:48;;;;;;;6.30;2.50;;;;;18.20;101466.00;;;;12764124;22;20261;-79
2022/08/29 21:17:49;;;;;;;6.18;2.60;;;;;18.20;101473.00;;;;12812374;22;20680;-79
2022/08/29 21:22:50;;;;;;;7.15;2.85;;;;;18.30;101468.00;;;;12789171;22;20177;-79
2022/08/29 21:27:51;;;;;;;8.75;3.03;;;;;18.30;101459.00;;;;12812431;22;20197;-80
2022/08/29 21:32:54;;;;;;;6.20;3.08;;;;;18.30;101467.00;;;;12814049;22;20606;-78
2022/08/29 21:37:55;;;;;;;8.70;2.60;;;;;18.30;101471.00;;;;12814197;22;20194;-79
2022/08/29 21:42:56;;;;;;;8.43;3.25;;;;;18.30;101481.00;;;;12789719;22;20174;-79
2022/08/29 21:47:57;;;;;;;5.38;3.05;;;;;18.20;101479.00;;;;12764551;22;20992;-79
2022/08/29 21:52:59;;;;;;;7.10;3.13;;;;;18.20;101480.00;;;;12789821;22;20285;-79
2022/08/29 21:58:00;;;;;;;10.60;3.10;;;;;18.10;101482.00;;;;12790253;22;20173;-79
2022/08/29 22:03:04;;;;;;;5.90;2.97;;;;;18.00;101484.00;;;;12810179;22;20273;-79
2022/08/29 22:08:06;;;;;;;7.25;3.58;;;;;17.90;101487.00;;;;12810863;22;20198;-79
2022/08/29 22:13:08;;;;;;;7.68;3.05;;;;;17.80;101484.00;;;;12787015;22;20182;-78
2022/08/29 22:18:11;;;;;;;8.52;3.55;;;;;17.70;101489.00;;;;12857621;22;20193;-79
2022/08/29 22:23:15;;;;;;;5.40;3.55;;;;;17.70;101487.00;;;;12811637;22;20692;-79
2022/08/29 22:28:21;;;;;;;7.00;3.72;;;;;17.60;101485.00;;;;12787575;22;20182;-79
2022/08/29 22:33:23;;;;;;;7.13;3.33;;;;;17.50;101485.00;;;;12812019;22;20261;-80
2022/08/29 22:38:24;;;;;;;6.15;3.38;;;;;17.30;101484.00;;;;12807872;22;20279;-79
2022/08/29 22:43:27;;;;;;;7.78;3.28;;;;;17.20;101487.00;;;;12788050;22;20684;-79
2022/08/29 22:48:29;;;;;;;4.75;3.42;;;;;17.10;101474.00;;;;12792163;22;20175;-79
2022/08/29 22:53:30;;;;;;;6.88;3.35;;;;;17.00;101480.00;;;;12860358;22;20162;-78
2022/08/29 22:58:31;;;;;;;6.95;3.92;;;;;17.00;101484.00;;;;12814379;22;20220;-79
2022/08/29 23:03:32;;;;;;;6.78;3.65;;;;;17.00;101477.00;;;;12835144;22;20613;-79
2022/08/29 23:08:34;;;;;;;7.70;4.10;;;;;17.00;101473.00;;;;12790658;22;20402;-78
2022/08/29 23:13:35;;;;;;;6.93;4.10;;;;;17.00;101469.00;;;;12788071;23;20180;-80
2022/08/29 23:18:37;;;;;;;10.27;4.13;;;;;17.00;101474.00;;;;12859756;22;20272;-79
2022/08/29 23:23:38;;;;;;;12.40;3.97;;;;;17.00;101469.00;;;;12788774;22;20965;-79
2022/08/29 23:28:40;;;;;;;8.27;4.10;;;;;17.00;101466.00;;;;12790341;22;20172;-79
2022/08/29 23:33:41;;;;;;;7.15;4.35;;;;;17.00;101464.00;;;;12717452;22;20182;-80
2022/08/29 23:38:43;;;;;;;11.30;3.95;;;;;17.00;101458.00;;;;12841181;22;20252;-78
2022/08/29 23:43:44;;;;;;;9.15;3.97;;;;;17.00;101476.00;;;;12790975;22;20194;-79
2022/08/29 23:48:45;;;;;;;9.70;4.10;;;;;16.90;101463.00;;;;12815306;22;20233;-79
2022/08/29 23:53:47;;;;;;;10.87;4.43;;;;;16.90;101464.00;;;;12836115;22;20892;-79
2022/08/29 23:58:49;;;;;;;8.57;4.20;;;;;16.90;101461.00;;;;12835546;22;20746;-78
